createdAt,value
2022-09-11T00:04:16.924Z,3.70
2022-09-11T00:09:22.318Z,3.90
2022-09-11T00:14:29.001Z,3.80
2022-09-11T00:19:35.758Z,4.30
2022-09-11T00:24:41.637Z,3.97
2022-09-11T00:29:47.130Z,3.80
2022-09-11T00:34:52.591Z,4.67
2022-09-11T00:39:58.072Z,3.80
2022-09-11T00:45:07.401Z,4.20
2022-09-11T00:50:18.902Z,3.70
2022-09-11T00:55:27.367Z,3.50
2022-09-11T01:00:33.049Z,3.17
2022-09-11T01:05:41.417Z,3.83
2022-09-11T01:10:59.285Z,3.57
2022-09-11T01:16:12.445Z,3.40
2022-09-11T01:21:34.618Z,4.30
2022-09-11T01:26:52.339Z,4.23
2022-09-11T01:32:19.005Z,5.40
2022-09-11T01:37:37.151Z,6.83
2022-09-11T01:42:46.111Z,7.20
2022-09-11T01:47:53.293Z,9.60
2022-09-11T01:53:05.192Z,13.10
2022-09-11T01:58:21.233Z,15.53
2022-09-11T02:03:29.944Z,17.07
2022-09-11T02:08:53.562Z,15.37
2022-09-11T02:14:12.443Z,15.23
2022-09-11T02:19:21.062Z,14.77
2022-09-11T02:24:28.294Z,12.80
2022-09-11T02:29:34.745Z,13.03
2022-09-11T02:34:42.962Z,14.10
2022-09-11T02:40:20.076Z,15.77
2022-09-11T02:45:54.579Z,15.73
2022-09-11T02:51:22.646Z,15.63
2022-09-11T02:56:49.519Z,15.93
2022-09-11T03:01:59.860Z,14.90
2022-09-11T03:07:06.199Z,14.43
2022-09-11T03:12:11.959Z,14.87
2022-09-11T03:17:17.604Z,16.93
2022-09-11T03:22:25.197Z,18.00
2022-09-11T03:27:31.082Z,17.90
2022-09-11T03:32:37.160Z,17.20
2022-09-11T03:37:42.755Z,15.63
2022-09-11T03:42:49.365Z,15.97
2022-09-11T03:47:55.985Z,17.53
2022-09-11T03:53:01.663Z,17.03
2022-09-11T03:58:09.542Z,12.63
2022-09-11T04:03:17.781Z,12.30
2022-09-11T04:08:24.646Z,12.53
2022-09-11T04:13:37.141Z,12.47
2022-09-11T04:18:46.037Z,12.03
2022-09-11T04:23:57.979Z,13.53
2022-09-11T04:29:03.970Z,12.67
2022-09-11T04:34:10.026Z,12.63
2022-09-11T04:39:16.663Z,11.87
2022-09-11T04:44:25.207Z,13.47
2022-09-11T04:49:33.206Z,14.37
2022-09-11T04:54:38.895Z,13.77
2022-09-11T04:59:46.014Z,13.40
2022-09-11T05:04:52.109Z,12.40
2022-09-11T05:09:57.763Z,13.53
2022-09-11T05:15:04.419Z,13.13
2022-09-11T05:20:12.036Z,12.20
2022-09-11T05:25:18.649Z,11.60
2022-09-11T05:30:24.455Z,12.07
2022-09-11T05:35:32.454Z,12.10
2022-09-11T05:40:40.159Z,13.03
2022-09-11T05:45:46.269Z,11.30
2022-09-11T05:50:58.269Z,11.17
2022-09-11T05:56:13.013Z,11.33
2022-09-11T06:01:21.723Z,9.87
2022-09-11T06:06:29.552Z,10.30
2022-09-11T06:11:35.259Z,10.10
2022-09-11T06:16:41.672Z,10.03
2022-09-11T06:21:50.915Z,9.27
2022-09-11T06:27:07.772Z,9.53
2022-09-11T06:32:15.356Z,9.13
2022-09-11T06:37:21.314Z,9.60
2022-09-11T06:42:28.181Z,8.53
2022-09-11T06:47:35.470Z,8.70
2022-09-11T06:52:41.613Z,8.10
2022-09-11T06:57:48.961Z,7.97
2022-09-11T07:02:58.018Z,7.23
2022-09-11T07:08:05.518Z,5.07
2022-09-11T07:13:12.642Z,5.43
2022-09-11T07:18:18.590Z,5.50
2022-09-11T07:23:25.314Z,5.50
2022-09-11T07:28:31.708Z,4.30
2022-09-11T07:33:37.866Z,4.70
2022-09-11T07:38:45.846Z,4.90
2022-09-11T07:43:57.118Z,4.30
2022-09-11T07:49:04.291Z,4.43
2022-09-11T07:54:11.601Z,4.30
2022-09-11T07:59:18.273Z,4.60
2022-09-11T08:04:25.593Z,4.70
2022-09-11T08:09:31.946Z,4.30
2022-09-11T08:14:38.780Z,4.10
2022-09-11T08:19:52.204Z,4.70
2022-09-11T08:24:57.864Z,4.43
2022-09-11T08:30:04.211Z,4.17
2022-09-11T08:35:10.819Z,3.93
2022-09-11T08:40:17.414Z,4.43
2022-09-11T08:45:28.108Z,3.60
2022-09-11T08:50:36.941Z,3.50
2022-09-11T08:55:52.037Z,3.27
2022-09-11T09:01:10.059Z,3.60
2022-09-11T09:06:20.430Z,3.77
2022-09-11T09:11:39.202Z,3.00
2022-09-11T09:16:52.605Z,3.17
2022-09-11T09:22:21.084Z,3.40
2022-09-11T09:27:39.268Z,4.20
2022-09-11T09:33:11.380Z,3.13
2022-09-11T09:38:21.853Z,2.60
2022-09-11T09:43:46.497Z,2.10
2022-09-11T09:48:52.184Z,2.60
2022-09-11T09:54:01.311Z,2.83
2022-09-11T09:59:18.750Z,2.53
2022-09-11T10:04:30.358Z,2.17
2022-09-11T10:09:36.387Z,2.57
2022-09-11T10:14:51.477Z,3.00
2022-09-11T10:19:57.853Z,3.37
2022-09-11T10:25:26.196Z,3.00
2022-09-11T10:30:40.475Z,3.50
2022-09-11T10:35:55.364Z,3.07
2022-09-11T10:41:17.561Z,2.57
2022-09-11T10:46:29.206Z,3.07
2022-09-11T10:51:38.092Z,3.10
2022-09-11T10:56:52.306Z,3.63
2022-09-11T11:01:58.422Z,3.50
2022-09-11T11:07:12.929Z,3.20
2022-09-11T11:12:28.991Z,2.50
2022-09-11T11:17:37.424Z,2.17
2022-09-11T11:23:01.186Z,3.37
2022-09-11T11:28:40.277Z,3.03
2022-09-11T11:34:22.340Z,2.70
2022-09-11T11:39:51.794Z,2.83
2022-09-11T11:45:04.670Z,2.70
2022-09-11T11:50:18.944Z,3.10
2022-09-11T11:55:30.902Z,3.23
2022-09-11T12:00:39.366Z,2.33
2022-09-11T12:05:44.932Z,2.43
2022-09-11T12:11:02.523Z,3.00
2022-09-11T12:16:15.113Z,2.60
2022-09-11T12:21:31.132Z,2.00
2022-09-11T12:26:36.560Z,2.10
2022-09-11T12:31:53.758Z,1.97
2022-09-11T12:37:02.215Z,2.13
2022-09-11T12:42:28.775Z,2.33
2022-09-11T12:47:41.947Z,2.90
2022-09-11T12:52:51.044Z,2.60
2022-09-11T12:57:57.543Z,2.03
2022-09-11T13:03:04.546Z,2.20
2022-09-11T13:08:24.600Z,2.20
2022-09-11T13:13:39.634Z,2.50
2022-09-11T13:18:45.336Z,3.03
2022-09-11T13:23:51.477Z,2.93
2022-09-11T13:28:59.732Z,3.00
2022-09-11T13:34:08.192Z,3.13
2022-09-11T13:39:17.497Z,3.03
2022-09-11T13:44:31.791Z,3.27
2022-09-11T13:49:42.496Z,2.83
2022-09-11T13:54:51.008Z,3.17
2022-09-11T13:59:58.168Z,3.07
2022-09-11T14:05:26.133Z,3.57
2022-09-11T14:10:34.201Z,2.80
2022-09-11T14:15:48.495Z,2.47
2022-09-11T14:20:55.982Z,2.30
2022-09-11T14:26:17.123Z,2.43
2022-09-11T14:31:45.300Z,2.50
2022-09-11T14:37:01.824Z,2.27
2022-09-11T14:42:22.882Z,2.47
2022-09-11T14:47:30.222Z,2.40
2022-09-11T14:52:37.271Z,2.10
2022-09-11T14:57:43.026Z,2.03
2022-09-11T15:02:48.594Z,2.30
2022-09-11T15:07:54.109Z,2.50
2022-09-11T15:13:00.042Z,1.97
2022-09-11T15:18:06.167Z,2.73
2022-09-11T15:23:11.587Z,3.17
2022-09-11T15:28:17.062Z,3.23
2022-09-11T15:33:22.546Z,3.60
2022-09-11T15:38:28.013Z,2.77
2022-09-11T15:43:38.948Z,3.33
2022-09-11T15:48:46.184Z,3.90
2022-09-11T15:53:52.637Z,3.60
2022-09-11T15:59:00.461Z,3.13
2022-09-11T16:04:09.251Z,2.97
2022-09-11T16:09:17.291Z,2.83
2022-09-11T16:14:25.712Z,2.20
2022-09-11T16:19:32.998Z,3.00
2022-09-11T16:24:38.799Z,2.63
2022-09-11T16:30:25.978Z,3.03
2022-09-11T16:34:52.373Z,3.47
2022-09-11T16:39:58.268Z,3.70
2022-09-11T16:45:03.741Z,3.37
2022-09-11T16:50:10.184Z,2.93
2022-09-11T16:55:18.170Z,3.40
2022-09-11T17:00:23.663Z,3.30
2022-09-11T17:05:29.194Z,3.37
2022-09-11T17:10:34.630Z,3.23
2022-09-11T17:15:42.340Z,3.00
2022-09-11T17:20:48.189Z,3.10
2022-09-11T17:25:53.839Z,3.40
2022-09-11T17:31:05.206Z,3.37
2022-09-11T17:36:12.214Z,3.40
2022-09-11T17:41:17.850Z,3.30
2022-09-11T17:46:24.601Z,3.40
2022-09-11T17:51:30.493Z,3.47
2022-09-11T17:56:36.072Z,3.57
2022-09-11T18:01:41.622Z,3.83
2022-09-11T18:06:47.106Z,3.90
2022-09-11T18:11:54.728Z,3.63
2022-09-11T18:17:01.548Z,3.80
2022-09-11T18:22:09.697Z,3.87
2022-09-11T18:27:15.432Z,3.80
2022-09-11T18:32:20.913Z,3.87
2022-09-11T18:37:26.999Z,4.40
2022-09-11T18:42:32.413Z,4.87
2022-09-11T18:47:38.267Z,4.20
2022-09-11T18:52:43.942Z,4.43
2022-09-11T18:57:50.011Z,4.37
2022-09-11T19:03:00.193Z,4.00
2022-09-11T19:08:05.875Z,4.67
2022-09-11T19:13:11.268Z,4.37
2022-09-11T19:18:16.731Z,5.30
2022-09-11T19:23:22.221Z,5.27
2022-09-11T19:28:28.158Z,5.43
2022-09-11T19:33:35.835Z,5.40
2022-09-11T19:38:41.877Z,5.50
2022-09-11T19:43:48.674Z,5.40
2022-09-11T19:48:57.105Z,4.37
2022-09-11T19:54:04.451Z,4.13
2022-09-11T19:59:10.699Z,4.37
2022-09-11T20:04:17.766Z,4.00
2022-09-11T20:09:32.033Z,4.10
2022-09-11T20:14:31.277Z,4.50
2022-09-11T20:19:36.822Z,3.87
2022-09-11T20:24:42.224Z,4.03
2022-09-11T20:29:47.671Z,4.67
2022-09-11T20:34:53.151Z,4.20
2022-09-11T20:40:00.465Z,4.70
2022-09-11T20:45:06.594Z,4.37
2022-09-11T20:50:13.542Z,4.80
2022-09-11T20:55:19.161Z,4.23
2022-09-11T21:00:24.567Z,4.03
2022-09-11T21:05:30.218Z,3.80
2022-09-11T21:10:39.146Z,4.47
2022-09-11T21:15:46.682Z,4.70
2022-09-11T21:20:56.632Z,5.17
2022-09-11T21:26:02.197Z,6.13
2022-09-11T21:31:08.230Z,4.93
2022-09-11T21:36:13.817Z,4.77
2022-09-11T21:41:19.491Z,4.73
2022-09-11T21:46:25.921Z,5.30
2022-09-11T21:51:31.440Z,5.47
2022-09-11T21:56:36.898Z,6.60
2022-09-11T22:01:42.421Z,6.27
2022-09-11T22:06:47.844Z,5.60
2022-09-11T22:11:56.750Z,5.43
2022-09-11T22:17:01.576Z,5.43
2022-09-11T22:22:07.056Z,5.07
2022-09-11T22:27:13.152Z,5.03
2022-09-11T22:32:18.537Z,4.73
2022-09-11T22:37:23.919Z,5.37
2022-09-11T22:42:30.971Z,4.90
2022-09-11T22:47:36.724Z,4.90
2022-09-11T22:52:42.104Z,5.00
2022-09-11T22:57:47.507Z,4.70
2022-09-11T23:02:52.900Z,4.13
2022-09-11T23:07:58.278Z,5.50
2022-09-11T23:13:03.744Z,4.97
2022-09-11T23:18:09.307Z,5.00
2022-09-11T23:23:14.705Z,5.27
2022-09-11T23:28:20.481Z,4.60
2022-09-11T23:33:26.215Z,4.40
2022-09-11T23:38:31.762Z,4.20
2022-09-11T23:43:37.236Z,4.93
2022-09-11T23:48:43.638Z,4.83
2022-09-11T23:53:50.684Z,4.83
2022-09-11T23:58:56.287Z,4.77
